Metar de toute la France(point de départ, Chateauroux, classé dans l'ordre alphabétique actualisée toutes les 30 minutes)






LFBA - Agen/, France
Distance de la station: SSO 307km
Mise à jour: 30/05/2015 00:00
clair
clair
 Wind from ONO
Vent: ONO 15 km/h
Température: 15°C
Point de Rosée: 10°C
Humidité: 72%
Baromètre: 1018 hPa
Récapitulatifs: clair
Visibilité: supérieure à 10 km
2015/05/29 22:00 LFBA 292200Z AUTO 29008KT CAVOK 15/10 Q1018
LFLP - Annecy/, France
Distance de la station: ESE 352km
Mise à jour: 30/05/2015 00:00
nuageux
nuageux
 Wind from variable
Vent: variable 4 km/h
Température: 15°C
Point de Rosée: 11°C
Humidité: 77%
Baromètre: 1016 hPa
Nuages: nuageux
Visibilité: 10 km
Nuages details: partiellement nuageux 1951 m
nuageux 2316 m
nuageux 3048 m
2015/05/29 22:00 LFLP 292200Z AUTO VRB02KT 9999 SCT064 BKN076 BKN100 15/11 Q1016
 
LFOA - Avord/ , France
Distance de la station: ENE 76km
Mise à jour: 30/05/2015 00:00
clair
clair
 Wind from O
Vent: O 19 km/h
Température: 16°C
Point de Rosée: 8°C
Humidité: 59%
Baromètre: 1015 hPa
Récapitulatifs: clair
Visibilité: supérieure à 10 km
2015/05/29 22:00 LFOA 292200Z AUTO 26010KT CAVOK 16/08 Q1015
LFSB - Bale/, France
Distance de la station: ENE 449km
Mise à jour: 30/05/2015 00:00
clair
clair
 Wind from O
Vent: O 13 km/h
Température: 16°C
Point de Rosée: 9°C
Humidité: 63%
Baromètre: 1013 hPa
Récapitulatifs: clair
Visibilité: supérieure à 10 km
2015/05/29 22:00 LFSB 292200Z 27007KT CAVOK 16/09 Q1013 NOSIG
 
LFOB - Beauvais/, France
Distance de la station: N 296km
Mise à jour: 30/05/2015 00:00
clair
clair
 Wind from ONO
Vent: ONO 9 km/h
Température: 11°C
Point de Rosée: 9°C
Humidité: 88%
Baromètre: 1013 hPa
Récapitulatifs: clair
Visibilité: supérieure à 10 km
2015/05/29 22:00 LFOB 292200Z AUTO 29005KT CAVOK 11/09 Q1013
LFBE - Bergerac/, France
Distance de la station: SSO 240km
Mise à jour: 30/05/2015 00:00
clair
clair
 Wind from ONO
Vent: ONO 9 km/h
Température: 13°C
Point de Rosée: 9°C
Humidité: 77%
Baromètre: 1018 hPa
Récapitulatifs: clair
Visibilité: supérieure à 10 km
2015/05/29 22:00 LFBE 292200Z AUTO 29005KT CAVOK 13/09 Q1018
 
LFMU - Beziers/, France
Distance de la station: SSE 411km
Mise à jour: 30/05/2015 00:00
clair
clair
 Wind from NO
Vent: NO 9 km/h
Température: 20°C
Point de Rosée: 13°C
Humidité: 64%
Baromètre: 1015 hPa
Récapitulatifs: clair
Visibilité: supérieure à 10 km
2015/05/29 22:00 LFMU 292200Z AUTO 32005KT CAVOK 20/13 Q1015
LFBZ - Biarritz/, France
Distance de la station: SO 449km
Mise à jour: 30/05/2015 00:00
partiellement nuageux
partiellement nuageux
 Wind from SO
Vent: SO 4 km/h
Température: 13°C
Point de Rosée: 10°C
Humidité: 82%
Baromètre: 1020 hPa
Nuages: partiellement nuageux
Visibilité: 10 km
Nuages details: partiellement nuageux 701 m
2015/05/29 22:00 LFBZ 292200Z AUTO 22002KT 9999 SCT023 13/10 Q1020
 
LFBD - Bordeaux/, France
Distance de la station: SO 289km
Mise à jour: 30/05/2015 00:00
clair
clair
 Wind from OSO
Vent: OSO 6 km/h
Température: 13°C
Point de Rosée: 10°C
Humidité: 82%
Baromètre: 1019 hPa
Récapitulatifs: clair
Visibilité: supérieure à 10 km
2015/05/29 22:00 LFBD 292200Z AUTO 25003KT CAVOK 13/10 Q1019
LFAQ - Bray/, France
Distance de la station: N 358km
Mise à jour: 30/05/2015 00:00
clair
clair
 Wind from O
Vent: O 17 km/h
Température: 9°C
Wind Chill: 7°C
Point de Rosée: 7°C
Humidité: 87%
Baromètre: 1011 hPa
Récapitulatifs: clair
Visibilité: supérieure à 10 km
2015/05/29 22:00 LFAQ 292200Z AUTO 26009KT CAVOK 09/07 Q1011
 
LFRB - Brest/, France
Distance de la station: ONO 492km
Mise à jour: 30/05/2015 00:00
partiellement nuageux
partiellement nuageux
 Wind from OSO
Vent: OSO 6 km/h
Température: 8°C
Point de Rosée: 6°C
Humidité: 87%
Baromètre: 1016 hPa
Nuages: partiellement nuageux
Visibilité: 10 km
Nuages details: partiellement nuageux 762 m
2015/05/29 22:00 LFRB 292200Z 25003KT 9999 SCT025 08/06 Q1016 NOSIG
LFRK - Caen/, France
Distance de la station: NNO 306km
Mise à jour: 30/05/2015 00:00
Quelques Nuages
Quelques Nuages
 Wind from O
Vent: O 11 km/h
Température: 9°C
Wind Chill: 7°C
Point de Rosée: 8°C
Humidité: 94%
Baromètre: 1014 hPa
Nuages: Quelques Nuages
Visibilité: 10 km
Nuages details: Quelques Nuages 1219 m
2015/05/29 22:00 LFRK 292200Z AUTO 26006KT 9999 FEW040 09/08 Q1014
 
LFMK - Carcassonne/, France
Distance de la station: S 403km
Mise à jour: 30/05/2015 00:00
nuageux
nuageux
 Wind from O
Vent: O 9 km/h
Température: 17°C
Point de Rosée: 13°C
Humidité: 77%
Baromètre: 1017 hPa
Nuages: nuageux
Visibilité: 10 km
Nuages details: Quelques Nuages 1829 m
nuageux 7315 m
2015/05/29 22:00 LFMK 292200Z AUTO 26005KT 230V290 9999 FEW060 BKN240 17/13 Q1017
LFMV - Caumont/, France
Distance de la station: SE 410km
Mise à jour: 30/05/2015 00:00
clair
clair
 Wind from calm
Vent: Vent calme
Température: 16°C
Point de Rosée: 15°C
Humidité: 94%
Baromètre: 1015 hPa
Récapitulatifs: clair
Visibilité: supérieure à 10 km
2015/05/29 22:00 LFMV 292200Z AUTO 00000KT CAVOK 16/15 Q1015
 
LFBC - Cazaux/, France
Distance de la station: SO 336km
Mise à jour: 30/05/2015 00:00
Quelques Nuages
Quelques Nuages
 Wind from O
Vent: O 6 km/h
Température: 12°C
Point de Rosée: 10°C
Humidité: 88%
Baromètre: 1019 hPa
Nuages: Quelques Nuages
Visibilité: 10 km
Nuages details: Quelques Nuages 732 m
2015/05/29 22:00 LFBC 292200Z AUTO 27003KT 9999 FEW024 12/10 Q1019
LFPC - Creil/, France
Distance de la station: NNE 278km
Mise à jour: 30/05/2015 00:00
faible pluie, nuageux
faible pluie, nuageux
 Wind from O
Vent: O 17 km/h
Température: 11°C
Point de Rosée: 9°C
Humidité: 88%
Baromètre: 1013 hPa
Récapitulatifs: faible pluie
Nuages: nuageux
Visibilité: 10 km
Nuages details: Quelques Nuages 518 m
partiellement nuageux 1219 m
nuageux 1768 m
2015/05/29 22:00 LFPC 292200Z AUTO 26009KT 9999 -RA FEW017 SCT040 BKN058 11/09 Q1013
 
LFLB - Chambery/, France
Distance de la station: ESE 348km
Mise à jour: 30/05/2015 00:00
Orage
Orage
 Wind from variable
Vent: variable 4 km/h
Température: 15°C
Point de Rosée: 14°C
Humidité: 94%
Baromètre: 1015 hPa
Nuages: Orage
Visibilité: 10 km
Nuages details: Quelques Nuages 1829 m
nuageux 2195 m
Couvert 2682 m
2015/05/29 22:00 LFLB 292200Z AUTO VRB02KT 9999 FEW060/// BKN072/// OVC088/// ///TCU 15/14 Q1015
LFOK - Chalons/, France
Distance de la station: NE 287km
Mise à jour: 30/05/2015 00:00
clair
clair
 Wind from OSO
Vent: OSO 17 km/h
Température: 14°C
Point de Rosée: 9°C
Humidité: 72%
Baromètre: 1012 hPa
Récapitulatifs: clair
Visibilité: supérieure à 10 km
2015/05/29 22:00 LFOK 292200Z AUTO 24009KT CAVOK 14/09 Q1012
 
LFOC - Chateaudun/, France
Distance de la station: N 137km
Mise à jour: 30/05/2015 00:00
clair
clair
 Wind from OSO
Vent: OSO 22 km/h
Température: 14°C
Point de Rosée: 9°C
Humidité: 72%
Baromètre: 1014 hPa
Récapitulatifs: clair
Visibilité: supérieure à 10 km
2015/05/29 22:00 LFOC 292200Z AUTO 25012KT CAVOK 14/09 Q1014
LFLX - Chateauroux/, France
Distance de la station: NE 4km
Mise à jour: 30/05/2015 00:00
clair
clair
 Wind from O
Vent: O 7 km/h
Température: 15°C
Point de Rosée: 8°C
Humidité: 63%
Baromètre: 1016 hPa
Récapitulatifs: clair
Visibilité: supérieure à 10 km
2015/05/29 22:00 LFLX 292200Z AUTO 28004KT CAVOK 15/08 Q1016
 
LFPG - Charles De Gaulle/, France
Distance de la station: NNE 252km
Mise à jour: 30/05/2015 00:00
faible pluie, nuageux
faible pluie, nuageux
 Wind from O
Vent: O 20 km/h
Température: 14°C
Point de Rosée: 10°C
Humidité: 77%
Baromètre: 1013 hPa
Récapitulatifs: faible pluie
Nuages: nuageux
Visibilité: 10 km
Nuages details: Quelques Nuages 640 m
partiellement nuageux 792 m
nuageux 1097 m
2015/05/29 22:00 LFPG 292200Z 28011KT 9999 -RA FEW021 SCT026 BKN036 14/10 Q1013 NOSIG
LFRC - Cherbourg/, France
Distance de la station: NO 390km
Mise à jour: 30/05/2015 00:00
clair
clair
 Wind from OSO
Vent: OSO 11 km/h
Température: 8°C
Wind Chill: 6°C
Point de Rosée: 6°C
Humidité: 87%
Baromètre: 1014 hPa
Récapitulatifs: clair
Visibilité: supérieure à 10 km
2015/05/29 22:00 LFRC 292200Z AUTO 25006KT CAVOK 08/06 Q1014
 
LFLC - Clermont/, France
Distance de la station: SE 163km
Mise à jour: 30/05/2015 00:00
clair
clair
 Wind from calm
Vent: Vent calme
Température: 16°C
Point de Rosée: 7°C
Humidité: 55%
Baromètre: 1016 hPa
Récapitulatifs: clair
Visibilité: supérieure à 10 km
2015/05/29 22:00 LFLC 292200Z 00000KT CAVOK 16/07 Q1016 NOSIG
LFBG - Cognac/, France
Distance de la station: SO 200km
Mise à jour: 30/05/2015 00:00
clair
clair
 Wind from SO
Vent: SO 6 km/h
Température: 13°C
Point de Rosée: 9°C
Humidité: 77%
Baromètre: 1018 hPa
Récapitulatifs: clair
Visibilité: supérieure à 10 km
2015/05/29 22:00 LFBG 292200Z AUTO 22003KT CAVOK 13/09 Q1018
 
LFBY - Dax/, France
Distance de la station: SSO 411km
Mise à jour: 30/05/2015 00:00

 Wind from calm
Vent: Vent calme
Température: 13°C
Point de Rosée: 10°C
Humidité: 82%
Baromètre: 1019 hPa
Visibilité: 10 km
2015/05/29 22:00 LFBY 292200Z AUTO 00000KT 9999 // ////// 13/10 Q1019
LFSD - Dijon/, France
Distance de la station: ENE 261km
Mise à jour: 30/05/2015 00:00
clair
clair
 Wind from OSO
Vent: OSO 15 km/h
Température: 16°C
Point de Rosée: 8°C
Humidité: 59%
Baromètre: 1014 hPa
Récapitulatifs: clair
Visibilité: supérieure à 10 km
2015/05/29 22:00 LFSD 292200Z AUTO 24008KT CAVOK 16/08 Q1014
 
LFRD - Dinard/, France
Distance de la station: NO 342km
Mise à jour: 30/05/2015 00:00
Couvert
Couvert
 Wind from ONO
Vent: ONO 15 km/h
Température: 12°C
Point de Rosée: 8°C
Humidité: 77%
Baromètre: 1015 hPa
Nuages: Couvert
Visibilité: 10 km
Nuages details: nuageux 488 m
nuageux 701 m
Couvert 1036 m
2015/05/29 22:00 LFRD 292200Z AUTO 29008KT 9999 BKN016 BKN023 OVC034 12/08 Q1015
LFGJ - Dole/, France
Distance de la station: E 286km
Mise à jour: 30/05/2015 00:00
clair
clair
 Wind from S
Vent: S 6 km/h
Température: 12°C
Point de Rosée: 8°C
Humidité: 77%
Baromètre: 1015 hPa
Récapitulatifs: clair
Visibilité: supérieure à 10 km
2015/05/29 22:00 LFGJ 292200Z AUTO 18003KT CAVOK 12/08 Q1015
 
LFOE - Evreux/, France
Distance de la station: N 247km
Mise à jour: 30/05/2015 00:00
Couvert
Couvert
 Wind from O
Vent: O 11 km/h
Température: 11°C
Point de Rosée: 10°C
Humidité: 94%
Baromètre: 1013 hPa
Nuages: Couvert
Visibilité: 10 km
Nuages details: Quelques Nuages 1006 m
partiellement nuageux 1707 m
Couvert 2621 m
2015/05/29 22:00 LFOE 292200Z AUTO 28006KT 9999 FEW033 SCT056 OVC086 11/10 Q1013
LFMT - Frejorgues/, France
Distance de la station: SSE 403km
Mise à jour: 30/05/2015 00:00
clair
clair
 Wind from SSO
Vent: SSO 6 km/h
Température: 18°C
Point de Rosée: 15°C
Humidité: 83%
Baromètre: 1015 hPa
Récapitulatifs: clair
Visibilité: supérieure à 10 km
2015/05/29 22:00 LFMT 292200Z 21003KT CAVOK 18/15 Q1015 NOSIG
 
LFMI - Istres/, France
Distance de la station: SE 446km
Mise à jour: 30/05/2015 00:00
clair
clair
 Wind from ESE
Vent: ESE 7 km/h
Température: 17°C
Point de Rosée: 14°C
Humidité: 83%
Baromètre: 1015 hPa
Récapitulatifs: clair
Visibilité: supérieure à 10 km
2015/05/29 22:00 LFMI 292200Z AUTO 11004KT CAVOK 17/14 Q1015
LFLS - Grenoble/, France
Distance de la station: ESE 323km
Mise à jour: 30/05/2015 00:00
nuageux
nuageux
 Wind from N
Vent: N 17 km/h
Température: 18°C
Point de Rosée: 9°C
Humidité: 56%
Baromètre: 1016 hPa
Nuages: nuageux
Visibilité: 10 km
Nuages details: nuageux 1433 m
nuageux 1890 m
2015/05/29 22:00 LFLS 292200Z AUTO 01009KT 350V050 9999 BKN047 BKN062 18/09 Q1016
 
LFBH - La Rochelle/, France
Distance de la station: OSO 229km
Mise à jour: 30/05/2015 00:00
nuageux
nuageux
 Wind from O
Vent: O 9 km/h
Température: 14°C
Point de Rosée: 10°C
Humidité: 77%
Baromètre: 1017 hPa
Nuages: nuageux
Visibilité: 10 km
Nuages details: nuageux 1036 m
nuageux 1829 m
2015/05/29 22:00 LFBH 292200Z AUTO 26005KT 9999 BKN034 BKN060 14/10 Q1017
LFRI - La Roche Sur Yon/, France
Distance de la station: O 233km
Mise à jour: 30/05/2015 00:00
nuageux
nuageux
 Wind from OSO
Vent: OSO 9 km/h
Température: 14°C
Point de Rosée: 10°C
Humidité: 77%
Baromètre: 1017 hPa
Nuages: nuageux
Visibilité: 10 km
Nuages details: Quelques Nuages 610 m
partiellement nuageux 1097 m
nuageux 2134 m
2015/05/29 22:00 LFRI 292200Z AUTO 25005KT 220V280 9999 FEW020 SCT036 BKN070 14/10 Q1017
 
LFOH - Le Havre/, France
Distance de la station: NNO 323km
Mise à jour: 30/05/2015 00:00
clair
clair
 Wind from O
Vent: O 26 km/h
Température: 11°C
Point de Rosée: 8°C
Humidité: 82%
Baromètre: 1013 hPa
Récapitulatifs: clair
Visibilité: supérieure à 10 km
2015/05/29 22:00 LFOH 292200Z AUTO 28014KT CAVOK 11/08 Q1013
LFRM - Le Mans/, France
Distance de la station: NO 166km
Mise à jour: 30/05/2015 00:00
Couvert
Couvert
 Wind from OSO
Vent: OSO 15 km/h
Température: 15°C
Point de Rosée: 9°C
Humidité: 68%
Baromètre: 1015 hPa
Nuages: Couvert
Visibilité: 10 km
Nuages details: partiellement nuageux 732 m
nuageux 1006 m
Couvert 1219 m
2015/05/29 22:00 LFRM 292200Z AUTO 25008KT 210V300 9999 SCT024 BKN033 OVC040 15/09 Q1015
 
LFRJ - Landivisiau/, France
Distance de la station: ONO 476km
Mise à jour: 30/05/2015 00:00
nuageux
nuageux
 Wind from O
Vent: O 6 km/h
Température: 10°C
Point de Rosée: 7°C
Humidité: 82%
Baromètre: 1016 hPa
Nuages: nuageux
Visibilité: 10 km
Nuages details: nuageux 823 m
2015/05/29 22:00 LFRJ 292200Z AUTO 27003KT 9999 BKN027 10/07 Q1016
LFRO - Lannion/, France
Distance de la station: ONO 441km
Mise à jour: 30/05/2015 00:00
partiellement nuageux
partiellement nuageux
 Wind from O
Vent: O 11 km/h
Température: 9°C
Wind Chill: 7°C
Point de Rosée: 6°C
Humidité: 82%
Baromètre: 1015 hPa
Nuages: partiellement nuageux
Visibilité: 10 km
Nuages details: Quelques Nuages 823 m
partiellement nuageux 1006 m
2015/05/29 22:00 LFRO 292200Z AUTO 28006KT 9999 FEW027 SCT033 09/06 Q1015
 
LFRL - Lanveoc/, France
Distance de la station: ONO 485km
Mise à jour: 30/05/2015 00:00
Quelques Nuages
Quelques Nuages
 Wind from NO
Vent: NO 9 km/h
Température: 9°C
Wind Chill: 7°C
Point de Rosée: 8°C
Humidité: 94%
Baromètre: 1016 hPa
Nuages: Quelques Nuages
Visibilité: 10 km
Nuages details: Quelques Nuages 518 m
2015/05/29 22:00 LFRL 292200Z AUTO 31005KT 9999 FEW017 09/08 Q1016
LFBL - Limoges/, France
Distance de la station: SSO 113km
Mise à jour: 30/05/2015 00:00
clair
clair
 Wind from ONO
Vent: ONO 11 km/h
Température: 12°C
Point de Rosée: 8°C
Humidité: 77%
Baromètre: 1018 hPa
Récapitulatifs: clair
Visibilité: supérieure à 10 km
2015/05/29 22:00 LFBL 292200Z AUTO 29006KT CAVOK 12/08 Q1018
 
LFQQ - Lille/, France
Distance de la station: NNE 430km
Mise à jour: 30/05/2015 00:00
clair
clair
 Wind from OSO
Vent: OSO 15 km/h
Température: 11°C
Point de Rosée: 8°C
Humidité: 82%
Baromètre: 1010 hPa
Récapitulatifs: clair
Visibilité: supérieure à 10 km
2015/05/29 22:00 LFQQ 292200Z 25008KT CAVOK 11/08 Q1010 NOSIG
LFRH - Lorient/, France
Distance de la station: ONO 401km
Mise à jour: 30/05/2015 00:00
partiellement nuageux
partiellement nuageux
 Wind from O
Vent: O 9 km/h
Température: 11°C
Point de Rosée: 10°C
Humidité: 94%
Baromètre: 1016 hPa
Nuages: partiellement nuageux
Visibilité: 6 km
2015/05/29 22:00 LFRH 292200Z AUTO 27005KT 6000 NSC 11/10 Q1016
 
LFLY - Lyon/, France
Distance de la station: ESE 279km
Mise à jour: 30/05/2015 00:00
clair
clair
 Wind from N
Vent: N 7 km/h
Température: 18°C
Point de Rosée: 8°C
Humidité: 52%
Baromètre: 1016 hPa
Récapitulatifs: clair
Visibilité: supérieure à 10 km
2015/05/29 22:00 LFLY 292200Z AUTO 36004KT CAVOK 18/08 Q1016
LFLL - Lyon/Satolas, France
Distance de la station: ESE 287km
Mise à jour: 30/05/2015 00:00
clair
clair
 Wind from NNO
Vent: NNO 9 km/h
Température: 18°C
Point de Rosée: 8°C
Humidité: 52%
Baromètre: 1016 hPa
Récapitulatifs: clair
Visibilité: supérieure à 10 km
2015/05/29 22:00 LFLL 292200Z 34005KT CAVOK 18/08 Q1016 NOSIG
 
LFSX - Luxeuil/, France
Distance de la station: ENE 366km
Mise à jour: 30/05/2015 00:00
clair
clair
 Wind from E
Vent: E 4 km/h
Température: 13°C
Point de Rosée: 10°C
Humidité: 82%
Baromètre: 1014 hPa
Récapitulatifs: clair
Visibilité: supérieure à 10 km
2015/05/29 22:00 LFSX 292200Z AUTO 10002KT CAVOK 13/10 Q1014
LFJR - Marce/, France
Distance de la station: NO 134km
Mise à jour: 30/05/2015 00:00
Couvert
Couvert
 Wind from OSO
Vent: OSO 22 km/h
Température: 14°C
Point de Rosée: 10°C
Humidité: 77%
Baromètre: 1016 hPa
Nuages: Couvert
Visibilité: 10 km
Nuages details: nuageux 1219 m
nuageux 1951 m
Couvert 2682 m
2015/05/29 22:00 LFJR 292200Z AUTO 25012KT 9999 BKN040 BKN064 OVC088 14/10 Q1016
 
LFML - Marseille/, France
Distance de la station: SE 466km
Mise à jour: 30/05/2015 00:00
clair
clair
 Wind from variable
Vent: variable 6 km/h
Température: 16°C
Point de Rosée: 13°C
Humidité: 83%
Baromètre: 1016 hPa
Récapitulatifs: clair
Visibilité: supérieure à 10 km
2015/05/29 22:00 LFML 292200Z VRB03KT CAVOK 16/13 Q1016 NOSIG
LFPM - Melun/, France
Distance de la station: NNE 213km
Mise à jour: 30/05/2015 00:00
partiellement nuageux
partiellement nuageux
 Wind from OSO
Vent: OSO 17 km/h
Température: 14°C
Point de Rosée: 9°C
Humidité: 72%
Baromètre: 1013 hPa
Nuages: partiellement nuageux
Visibilité: 10 km
Nuages details: Quelques Nuages 1067 m
partiellement nuageux 1494 m
2015/05/29 22:00 LFPM 292200Z AUTO 25009KT 9999 FEW035 SCT049 14/09 Q1013
 
LFJL - Metz-Nancy-Lorra/, France
Distance de la station: NE 416km
Mise à jour: 30/05/2015 00:00
clair
clair
 Wind from SO
Vent: SO 19 km/h
Température: 14°C
Point de Rosée: 8°C
Humidité: 67%
Baromètre: 1012 hPa
Récapitulatifs: clair
Visibilité: supérieure à 10 km
2015/05/29 22:00 LFJL 292200Z AUTO 22010KT CAVOK 14/08 Q1012
LFBM - Mont-De-Marsan/, France
Distance de la station: SSO 365km
Mise à jour: 30/05/2015 00:00
clair
clair
 Wind from O
Vent: O 6 km/h
Température: 12°C
Point de Rosée: 10°C
Humidité: 88%
Baromètre: 1019 hPa
Récapitulatifs: clair
Visibilité: supérieure à 10 km
2015/05/29 22:00 LFBM 292200Z AUTO 27003KT 240V300 CAVOK 12/10 Q1019
 
LFSO - Nancy/, France
Distance de la station: ENE 375km
Mise à jour: 30/05/2015 00:00
clair
clair
 Wind from SSO
Vent: SSO 13 km/h
Température: 13°C
Point de Rosée: 8°C
Humidité: 72%
Baromètre: 1013 hPa
Récapitulatifs: clair
Visibilité: supérieure à 10 km
2015/05/29 22:00 LFSO 292200Z AUTO 20007KT CAVOK 13/08 Q1013
LFRS - Nantes/, France
Distance de la station: O 252km
Mise à jour: 30/05/2015 00:00
nuageux
nuageux
 Wind from OSO
Vent: OSO 9 km/h
Température: 14°C
Point de Rosée: 11°C
Humidité: 82%
Baromètre: 1016 hPa
Nuages: nuageux
Visibilité: 10 km
Nuages details: partiellement nuageux 488 m
nuageux 853 m
2015/05/29 22:00 LFRS 292200Z 25005KT 9999 SCT016 BKN028 14/11 Q1016 NOSIG
 
LFTW - Nimes/, France
Distance de la station: SE 402km
Mise à jour: 30/05/2015 00:00
Orage
Orage
 Wind from variable
Vent: variable 6 km/h
Température: 16°C
Point de Rosée: 15°C
Humidité: 94%
Baromètre: 1015 hPa
Nuages: Orage
Visibilité: 8 km
2015/05/29 22:00 LFTW 292200Z AUTO VRB03KT 8000 ///TCU 16/15 Q1015
LFMO - Orange/, France
Distance de la station: SE 387km
Mise à jour: 30/05/2015 00:00
clair
clair
 Wind from SSO
Vent: SSO 6 km/h
Température: 18°C
Point de Rosée: 15°C
Humidité: 83%
Baromètre: 1016 hPa
Récapitulatifs: clair
Visibilité: supérieure à 10 km
2015/05/29 22:00 LFMO 292200Z AUTO 20003KT 170V230 CAVOK 18/15 Q1016
 
LFOJ - Orleans/, France
Distance de la station: N 128km
Mise à jour: 30/05/2015 00:00
clair
clair
 Wind from OSO
Vent: OSO 19 km/h
Température: 14°C
Point de Rosée: 9°C
Humidité: 72%
Baromètre: 1014 hPa
Récapitulatifs: clair
Visibilité: supérieure à 10 km
2015/05/29 22:00 LFOJ 292200Z AUTO 25010KT CAVOK 14/09 Q1014
LFPB - Paris/, France
Distance de la station: NNE 246km
Mise à jour: 30/05/2015 00:00
faible pluie, Orage
faible pluie, Orage
 Wind from O
Vent: O 22 km/h
Température: 14°C
Point de Rosée: 9°C
Humidité: 72%
Baromètre: 1013 hPa
Récapitulatifs: faible pluie
Nuages: Orage
Visibilité: 10 km
Nuages details: Quelques Nuages 701 m
nuageux 884 m
nuageux 1219 m
2015/05/29 22:00 LFPB 292200Z AUTO 28012KT 9999 -RA FEW023/// BKN029/// BKN040/// ///TCU 14/09 Q1013
 
LFPO - Paris/Orly/, France
Distance de la station: NNE 218km
Mise à jour: 30/05/2015 00:00
clair
clair
 Wind from O
Vent: O 13 km/h
Température: 14°C
Point de Rosée: 9°C
Humidité: 72%
Baromètre: 1013 hPa
Récapitulatifs: clair
Visibilité: supérieure à 10 km
2015/05/29 22:00 LFPO 292200Z 27007KT CAVOK 14/09 Q1013 NOSIG
LFMP - Perpignan/, France
Distance de la station: SSE 465km
Mise à jour: 30/05/2015 00:00
faible pluie, Couvert
faible pluie, Couvert
 Wind from NO
Vent: NO 15 km/h
Température: 18°C
Point de Rosée: 14°C
Humidité: 78%
Baromètre: 1016 hPa
Récapitulatifs: faible pluie
Nuages: Couvert
Visibilité: 10 km
Nuages details: Couvert 3048 m
2015/05/29 22:00 LFMP 292200Z AUTO 31008KT 9999 -RA OVC100 18/14 Q1016
 
LFBI - Poitiers/, France
Distance de la station: OSO 108km
Mise à jour: 30/05/2015 00:00
clair
clair
 Wind from OSO
Vent: OSO 15 km/h
Température: 13°C
Point de Rosée: 8°C
Humidité: 72%
Baromètre: 1017 hPa
Récapitulatifs: clair
Visibilité: supérieure à 10 km
2015/05/29 22:00 LFBI 292200Z AUTO 24008KT CAVOK 13/08 Q1017
LFRQ - Quimper/, France
Distance de la station: ONO 458km
Mise à jour: 30/05/2015 00:00
clair
clair
 Wind from O
Vent: O 6 km/h
Température: 10°C
Point de Rosée: 9°C
Humidité: 94%
Baromètre: 1016 hPa
Récapitulatifs: clair
Visibilité: supérieure à 10 km
2015/05/29 22:00 LFRQ 292200Z AUTO 26003KT CAVOK 10/09 Q1016
 
LFRN - Rennes/, France
Distance de la station: ONO 291km
Mise à jour: 30/05/2015 00:00
Couvert
Couvert
 Wind from O
Vent: O 11 km/h
Température: 13°C
Point de Rosée: 11°C
Humidité: 88%
Baromètre: 1015 hPa
Nuages: Couvert
Visibilité: 10 km
Nuages details: nuageux 549 m
nuageux 762 m
Couvert 1402 m
2015/05/29 22:00 LFRN 292200Z AUTO 26006KT 9999 BKN018 BKN025 OVC046 13/11 Q1015
LFCR - Rodez/, France
Distance de la station: SSE 277km
Mise à jour: 30/05/2015 00:00
Couvert
Couvert
 Wind from O
Vent: O 11 km/h
Température: 15°C
Point de Rosée: 10°C
Humidité: 72%
Baromètre: 1018 hPa
Nuages: Couvert
Visibilité: 10 km
Nuages details: Couvert 1494 m
2015/05/29 22:00 LFCR 292200Z AUTO 26006KT 9999 OVC049 15/10 Q1018
 
LFYR - Romorantin/, France
Distance de la station: N 56km
Mise à jour: 30/05/2015 00:00
clair
clair
 Wind from OSO
Vent: OSO 11 km/h
Température: 16°C
Point de Rosée: 7°C
Humidité: 55%
Baromètre: 1015 hPa
Récapitulatifs: clair
Visibilité: supérieure à 10 km
2015/05/29 22:00 LFYR 292200Z AUTO 25006KT 220V290 CAVOK 16/07 Q1015
LFOP - Rouen/, France
Distance de la station: N 286km
Mise à jour: 30/05/2015 00:00
nuageux
nuageux
 Wind from O
Vent: O 11 km/h
Température: 10°C
Wind Chill: 8°C
Point de Rosée: 8°C
Humidité: 88%
Baromètre: 1013 hPa
Nuages: nuageux
Visibilité: 10 km
Nuages details: partiellement nuageux 1219 m
nuageux 1433 m
2015/05/29 22:00 LFOP 292200Z AUTO 27006KT 250V310 9999 SCT040 BKN047 10/08 Q1013
 
LFMY - Salon/, France
Distance de la station: SE 446km
Mise à jour: 30/05/2015 00:00
clair
clair
 Wind from ESE
Vent: ESE 6 km/h
Température: 14°C
Point de Rosée: 13°C
Humidité: 94%
Baromètre: 1016 hPa
Récapitulatifs: clair
Visibilité: supérieure à 10 km
2015/05/29 22:00 LFMY 292200Z AUTO 11003KT CAVOK 14/13 Q1016
LFST - Strasbourg/, France
Distance de la station: ENE 483km
Mise à jour: 30/05/2015 00:00
clair
clair
 Wind from variable
Vent: variable 6 km/h
Température: 15°C
Point de Rosée: 11°C
Humidité: 77%
Baromètre: 1012 hPa
Récapitulatifs: clair
Visibilité: supérieure à 10 km
2015/05/29 22:00 LFST 292200Z AUTO VRB03KT CAVOK 15/11 Q1012
 
LFRT - Saint-Brieuc/, France
Distance de la station: ONO 388km
Mise à jour: 29/05/2015 23:00
nuageux
nuageux
 Wind from O
Vent: O 9 km/h
Température: 10°C
Wind Chill: 9°C
Point de Rosée: 8°C
Humidité: 88%
Baromètre: 1015 hPa
Nuages: nuageux
Visibilité: 10 km
Nuages details: nuageux 549 m
nuageux 975 m
2015/05/29 21:00 LFRT 292100Z AUTO 28005KT 9999 BKN018 BKN032 10/08 Q1015
LFSI - St. Dizier/, France
Distance de la station: NE 313km
Mise à jour: 30/05/2015 00:00
clair
clair
 Wind from OSO
Vent: OSO 7 km/h
Température: 16°C
Point de Rosée: 10°C
Humidité: 68%
Baromètre: 1012 hPa
Récapitulatifs: clair
Visibilité: supérieure à 10 km
2015/05/29 22:00 LFSI 292200Z AUTO 25004KT 220V290 CAVOK 16/10 Q1012
 
LFMH - St Etienne/, France
Distance de la station: SE 247km
Mise à jour: 30/05/2015 00:00
clair
clair
 Wind from calm
Vent: Vent calme
Température: 15°C
Point de Rosée: 8°C
Humidité: 63%
Baromètre: 1017 hPa
Récapitulatifs: clair
Visibilité: supérieure à 10 km
2015/05/29 22:00 LFMH 292200Z AUTO 00000KT CAVOK 15/08 Q1017
LFRG - St Gatien/, France
Distance de la station: NNO 305km
Mise à jour: 30/05/2015 00:00
nuageux
nuageux
 Wind from NNO
Vent: NNO 15 km/h
Température: 11°C
Point de Rosée: 9°C
Humidité: 88%
Baromètre: 1014 hPa
Nuages: nuageux
Visibilité: 10 km
Nuages details: nuageux 488 m
nuageux 823 m
nuageux 1097 m
2015/05/29 22:00 LFRG 292200Z AUTO 33008KT 9999 BKN016 BKN027 BKN036 11/09 Q1014
 
LFRZ - St. Nazaire/, France
Distance de la station: ONO 297km
Mise à jour: 30/05/2015 00:00
Couvert
Couvert
 Wind from O
Vent: O 13 km/h
Température: 14°C
Point de Rosée: 12°C
Humidité: 88%
Baromètre: 1016 hPa
Nuages: Couvert
Visibilité: 10 km
Nuages details: Quelques Nuages 427 m
partiellement nuageux 1128 m
Couvert 1402 m
2015/05/29 22:00 LFRZ 292200Z AUTO 26007KT 9999 FEW014 SCT037 OVC046 14/12 Q1016
LFLN - Saint Yan/, France
Distance de la station: ESE 184km
Mise à jour: 30/05/2015 00:00
clair
clair
 Wind from S
Vent: S 7 km/h
Température: 12°C
Point de Rosée: 8°C
Humidité: 77%
Baromètre: 1016 hPa
Récapitulatifs: clair
Visibilité: supérieure à 10 km
2015/05/29 22:00 LFLN 292200Z AUTO 19004KT 170V240 CAVOK 12/08 Q1016
 
LFBT - Tarbes/, France
Distance de la station: SSO 427km
Mise à jour: 30/05/2015 00:00
Couvert
Couvert
 Wind from O
Vent: O 9 km/h
Température: 13°C
Point de Rosée: 11°C
Humidité: 88%
Baromètre: 1020 hPa
Nuages: Couvert
Visibilité: 10 km
Nuages details: nuageux 335 m
Couvert 884 m
2015/05/29 22:00 LFBT 292200Z AUTO 26005KT 210V290 9999 BKN011 OVC029 13/11 Q1020
LFSL - Toul/, France
Distance de la station: NE 356km
Mise à jour: 30/05/2015 00:00
clair
clair
 Wind from NO
Vent: NO 9 km/h
Température: 14°C
Point de Rosée: 8°C
Humidité: 67%
Baromètre: 1018 hPa
Récapitulatifs: clair
Visibilité: supérieure à 10 km
2015/05/29 22:00 LFSL 292200Z AUTO 31005KT CAVOK 14/08 Q1018
 
LFBO - Toulouse/, France
Distance de la station: S 357km
Mise à jour: 30/05/2015 00:00
partiellement nuageux
partiellement nuageux
 Wind from O
Vent: O 17 km/h
Température: 18°C
Point de Rosée: 13°C
Humidité: 73%
Baromètre: 1018 hPa
Nuages: partiellement nuageux
Visibilité: 10 km
2015/05/29 22:00 LFBO 292200Z AUTO 28009KT 9999 NSC 18/13 Q1018
LFOT - Tours/, France
Distance de la station: NO 100km
Mise à jour: 30/05/2015 00:00
clair
clair
 Wind from OSO
Vent: OSO 15 km/h
Température: 14°C
Point de Rosée: 8°C
Humidité: 67%
Baromètre: 1015 hPa
Récapitulatifs: clair
Visibilité: supérieure à 10 km
2015/05/29 22:00 LFOT 292200Z 25008KT CAVOK 14/08 Q1015 NOSIG
 
LFPN - Toussus Le Noble/, France
Distance de la station: N 217km
Mise à jour: 30/05/2015 00:00
Orage
Orage
 Wind from O
Vent: O 15 km/h
Température: 14°C
Point de Rosée: 9°C
Humidité: 72%
Baromètre: 1013 hPa
Nuages: Orage
Visibilité: 10 km
Nuages details: Quelques Nuages 1036 m
partiellement nuageux 1250 m
nuageux 1463 m
2015/05/29 22:00 LFPN 292200Z AUTO 27008KT 230V290 9999 FEW034/// SCT041/// BKN048/// ///TCU 14/09 Q1013
LFPV - Villacoublay/, France
Distance de la station: N 220km
Mise à jour: 30/05/2015 00:00
Orage
Orage
 Wind from O
Vent: O 17 km/h
Température: 14°C
Point de Rosée: 9°C
Humidité: 72%
Baromètre: 1013 hPa
Nuages: Orage
Visibilité: 10 km
Nuages details: Quelques Nuages 914 m
nuageux 1463 m
nuageux 1646 m
2015/05/29 22:00 LFPV 292200Z AUTO 27009KT 9999 FEW030/// BKN048/// BKN054/// ///TCU 14/09 Q1013